createdAt,value
2022-12-15T00:00:21.267Z,96667.84
2022-12-15T00:03:27.365Z,96666.09
2022-12-15T00:06:13.535Z,96673.34
2022-12-15T00:08:59.524Z,96675.44
2022-12-15T00:11:45.395Z,96666.63
2022-12-15T00:14:31.607Z,96675.16
2022-12-15T00:17:17.736Z,96678.19
2022-12-15T00:20:03.762Z,96667.47
2022-12-15T00:22:49.360Z,96678.69
2022-12-15T00:25:35.797Z,96689.69
2022-12-15T00:28:21.557Z,96683.03
2022-12-15T00:31:07.400Z,96679.78
2022-12-15T00:33:52.986Z,96698.28
2022-12-15T00:36:38.635Z,96700.09
2022-12-15T00:39:05.974Z,96709.56
2022-12-15T00:41:33.488Z,96719.47
2022-12-15T00:44:00.709Z,96711.44
2022-12-15T00:46:46.456Z,96704.88
2022-12-15T00:49:32.281Z,96716.56
2022-12-15T00:52:18.553Z,96724.13
2022-12-15T00:55:04.295Z,96734.84
2022-12-15T00:57:50.459Z,96731.03
2022-12-15T01:00:36.277Z,96734.56
2022-12-15T01:03:34.994Z,96730.69
2022-12-15T01:06:31.443Z,96727.50
2022-12-15T01:09:18.145Z,96742.47
2022-12-15T01:12:04.894Z,96738.22
2022-12-15T01:14:52.047Z,96744.13
2022-12-15T01:17:38.396Z,96747.63
2022-12-15T01:20:14.193Z,96743.63
2022-12-15T01:22:42.541Z,96740.16
2022-12-15T01:25:11.452Z,96736.38
2022-12-15T01:27:38.669Z,96742.59
2022-12-15T01:30:08.847Z,96748.94
2022-12-15T01:32:36.119Z,96747.59
2022-12-15T01:35:06.090Z,96745.63
2022-12-15T01:37:35.236Z,96750.66
2022-12-15T01:40:23.783Z,96751.50
2022-12-15T01:42:51.660Z,96754.28
2022-12-15T01:46:02.197Z,96757.53
2022-12-15T01:48:52.346Z,96754.69
2022-12-15T01:51:32.291Z,96759.59
2022-12-15T01:54:17.275Z,96759.97
2022-12-15T01:56:50.418Z,96772.59
2022-12-15T01:59:27.131Z,96765.75
2022-12-15T02:01:54.957Z,96772.19
2022-12-15T02:04:23.848Z,96772.31
2022-12-15T02:06:53.140Z,96777.19
2022-12-15T02:09:24.594Z,96772.63
2022-12-15T02:12:41.335Z,96781.06
2022-12-15T02:15:29.455Z,96774.72
2022-12-15T02:18:36.327Z,96788.75
2022-12-15T02:21:39.214Z,96784.72
2022-12-15T02:24:45.123Z,96789.41
2022-12-15T02:28:04.349Z,96794.97
2022-12-15T02:30:40.444Z,96799.66
2022-12-15T02:33:14.860Z,96803.38
2022-12-15T02:36:16.140Z,96808.09
2022-12-15T02:38:43.594Z,96815.47
2022-12-15T02:41:37.120Z,96820.00
2022-12-15T02:44:17.884Z,96810.25
2022-12-15T02:47:04.930Z,96815.16
2022-12-15T02:49:59.851Z,96828.28
2022-12-15T02:53:17.959Z,96827.47
2022-12-15T02:55:57.398Z,96815.16
2022-12-15T02:58:54.686Z,96822.50
2022-12-15T03:01:35.350Z,96823.16
2022-12-15T03:04:07.394Z,96825.72
2022-12-15T03:06:35.041Z,96824.72
2022-12-15T03:09:02.596Z,96835.56
2022-12-15T03:11:29.961Z,96829.44
2022-12-15T03:13:57.971Z,96836.03
2022-12-15T03:16:25.288Z,96833.09
2022-12-15T03:18:53.180Z,96841.78
2022-12-15T03:21:20.519Z,96846.63
2022-12-15T03:23:47.973Z,96851.22
2022-12-15T03:26:15.167Z,96853.00
2022-12-15T03:28:42.787Z,96850.31
2022-12-15T03:31:10.015Z,96861.75
2022-12-15T03:33:37.476Z,96863.28
2022-12-15T03:36:05.381Z,96861.19
2022-12-15T03:38:33.236Z,96866.59
2022-12-15T03:41:00.412Z,96866.38
2022-12-15T03:43:28.254Z,96871.88
2022-12-15T03:45:55.842Z,96872.69
2022-12-15T03:48:23.469Z,96882.19
2022-12-15T03:50:50.645Z,96886.41
2022-12-15T03:53:18.142Z,96885.09
2022-12-15T03:55:45.355Z,96886.69
2022-12-15T03:58:12.872Z,96887.53
2022-12-15T04:00:40.122Z,96902.31
2022-12-15T04:03:07.789Z,96893.03
2022-12-15T04:05:35.821Z,96896.41
2022-12-15T04:08:03.913Z,96895.63
2022-12-15T04:10:34.957Z,96899.09
2022-12-15T04:13:11.244Z,96904.97
2022-12-15T04:15:40.423Z,96907.53
2022-12-15T04:18:11.106Z,96908.53
2022-12-15T04:20:40.396Z,96913.66
2022-12-15T04:23:08.620Z,96922.06
2022-12-15T04:25:56.151Z,96917.03
2022-12-15T04:28:42.424Z,96925.09
2022-12-15T04:31:37.327Z,96929.38
2022-12-15T04:34:29.905Z,96933.06
2022-12-15T04:37:16.480Z,96927.19
2022-12-15T04:40:07.713Z,96933.84
2022-12-15T04:42:59.429Z,96934.09
2022-12-15T04:45:45.260Z,96939.03
2022-12-15T04:48:31.969Z,96944.78
2022-12-15T04:51:18.028Z,96942.16
2022-12-15T04:54:04.775Z,96955.41
2022-12-15T04:56:51.697Z,96944.56
2022-12-15T04:59:37.497Z,96961.13
2022-12-15T05:02:23.504Z,96965.44
2022-12-15T05:05:09.495Z,96968.97
2022-12-15T05:07:55.478Z,96977.50
2022-12-15T05:10:40.924Z,96980.75
2022-12-15T05:13:28.108Z,96988.44
2022-12-15T05:16:13.843Z,96987.50
2022-12-15T05:19:00.003Z,97003.06
2022-12-15T05:21:45.629Z,97004.88
2022-12-15T05:24:31.578Z,97016.22
2022-12-15T05:27:17.425Z,97014.22
2022-12-15T05:30:03.137Z,97017.94
2022-12-15T05:32:33.423Z,97023.81
2022-12-15T05:35:01.628Z,97019.38
2022-12-15T05:37:29.006Z,97023.34
2022-12-15T05:39:56.523Z,97020.47
2022-12-15T05:42:23.733Z,97020.69
2022-12-15T05:44:51.268Z,97019.72
2022-12-15T05:47:18.433Z,97028.97
2022-12-15T05:49:45.950Z,97031.56
2022-12-15T05:52:13.249Z,97047.19
2022-12-15T05:54:40.729Z,97046.66
2022-12-15T05:57:08.226Z,97065.66
2022-12-15T05:59:35.770Z,97065.38
2022-12-15T06:02:03.051Z,97067.19
2022-12-15T06:04:30.735Z,97067.19
2022-12-15T06:06:57.993Z,97068.84
2022-12-15T06:09:25.447Z,97087.31
2022-12-15T06:11:52.673Z,97088.91
2022-12-15T06:14:20.281Z,97097.00
2022-12-15T06:16:50.881Z,97097.50
2022-12-15T06:19:20.230Z,97094.44
2022-12-15T06:21:47.761Z,97107.19
2022-12-15T06:24:15.379Z,97115.63
2022-12-15T06:26:42.874Z,97117.06
2022-12-15T06:29:13.342Z,97118.78
2022-12-15T06:31:42.904Z,97119.53
2022-12-15T06:34:16.618Z,97126.25
2022-12-15T06:36:44.539Z,97133.94
2022-12-15T06:39:15.315Z,97129.56
2022-12-15T06:41:43.858Z,97133.69
2022-12-15T06:44:16.040Z,97140.53
2022-12-15T06:46:45.829Z,97131.69
2022-12-15T06:49:14.687Z,97136.63
2022-12-15T06:51:42.912Z,97144.94
2022-12-15T06:54:11.312Z,97147.88
2022-12-15T06:56:39.371Z,97150.69
2022-12-15T06:59:08.524Z,97169.41
2022-12-15T07:01:36.095Z,97165.94
2022-12-15T07:04:05.813Z,97175.97
2022-12-15T07:06:36.858Z,97187.25
2022-12-15T07:09:08.461Z,97203.94
2022-12-15T07:11:36.142Z,97198.13
2022-12-15T07:14:03.959Z,97200.94
2022-12-15T07:16:31.682Z,97215.59
2022-12-15T07:18:59.363Z,97221.25
2022-12-15T07:21:26.638Z,97223.75
2022-12-15T07:23:56.249Z,97231.34
2022-12-15T07:26:25.217Z,97236.56
2022-12-15T07:28:53.941Z,97223.56
2022-12-15T07:31:22.375Z,97235.19
2022-12-15T07:33:52.385Z,97244.56
2022-12-15T07:36:20.598Z,97241.69
2022-12-15T07:38:50.704Z,97251.03
2022-12-15T07:41:19.957Z,97241.97
2022-12-15T07:43:48.056Z,97258.75
2022-12-15T07:46:16.615Z,97249.13
2022-12-15T07:48:44.304Z,97247.25
2022-12-15T07:51:20.313Z,97254.34
2022-12-15T07:53:52.310Z,97261.00
2022-12-15T07:56:20.753Z,97258.34
2022-12-15T07:58:49.570Z,97255.72
2022-12-15T08:01:18.684Z,97268.63
2022-12-15T08:03:46.548Z,97267.41
2022-12-15T08:06:15.305Z,97274.78
2022-12-15T08:08:50.398Z,97272.03
2022-12-15T08:11:22.142Z,97277.59
2022-12-15T08:14:02.595Z,97288.19
2022-12-15T08:16:31.552Z,97294.28
2022-12-15T08:18:59.141Z,97300.69
2022-12-15T08:21:26.475Z,97308.47
2022-12-15T08:23:54.367Z,97305.44
2022-12-15T08:26:26.565Z,97315.56
2022-12-15T08:28:55.863Z,97316.28
2022-12-15T08:31:24.591Z,97326.22
2022-12-15T08:33:52.472Z,97330.06
2022-12-15T08:36:20.616Z,97322.34
2022-12-15T08:38:48.327Z,97322.06
2022-12-15T08:41:23.299Z,97330.47
2022-12-15T08:43:52.235Z,97338.81
2022-12-15T08:46:23.557Z,97334.22
2022-12-15T08:48:53.038Z,97338.75
2022-12-15T08:51:22.481Z,97345.44
2022-12-15T08:53:50.253Z,97338.13
2022-12-15T08:56:20.855Z,97344.84
2022-12-15T08:58:51.233Z,97329.16
2022-12-15T09:01:24.018Z,97347.03
2022-12-15T09:03:54.505Z,97340.63
2022-12-15T09:06:26.439Z,97338.06
2022-12-15T09:09:00.873Z,97337.88
2022-12-15T09:11:29.958Z,97343.97
2022-12-15T09:13:58.327Z,97335.91
2022-12-15T09:16:28.023Z,97341.03
2022-12-15T09:18:58.936Z,97345.41
2022-12-15T09:21:29.604Z,97344.06
2022-12-15T09:24:01.885Z,97347.19
2022-12-15T09:26:33.158Z,97358.97
2022-12-15T09:29:02.192Z,97360.47
2022-12-15T09:31:33.651Z,97366.06
2022-12-15T09:34:02.438Z,97363.94
2022-12-15T09:36:33.013Z,97361.53
2022-12-15T09:39:02.663Z,97374.44
2022-12-15T09:41:36.431Z,97381.22
2022-12-15T09:44:21.425Z,97373.63
2022-12-15T09:47:36.953Z,97376.34
2022-12-15T09:50:11.004Z,97391.81
2022-12-15T09:53:00.206Z,97387.06
2022-12-15T09:55:33.106Z,97376.72
2022-12-15T09:58:16.306Z,97368.09
2022-12-15T10:00:56.718Z,97372.66
2022-12-15T10:03:58.718Z,97363.94
2022-12-15T10:06:36.990Z,97382.47
2022-12-15T10:09:28.001Z,97391.19
2022-12-15T10:12:15.545Z,97397.25
2022-12-15T10:15:01.218Z,97398.22
2022-12-15T10:17:52.239Z,97393.13
2022-12-15T10:20:30.163Z,97392.50
2022-12-15T10:23:15.185Z,97387.75
2022-12-15T10:25:59.859Z,97374.47
2022-12-15T10:29:03.471Z,97376.38
2022-12-15T10:32:00.268Z,97383.38
2022-12-15T10:34:38.128Z,97376.72
2022-12-15T10:37:06.978Z,97369.88
2022-12-15T10:39:47.393Z,97364.63
2022-12-15T10:42:24.689Z,97363.31
2022-12-15T10:44:56.498Z,97359.78
2022-12-15T10:47:27.989Z,97369.59
2022-12-15T10:50:24.078Z,97368.50
2022-12-15T10:52:52.333Z,97371.25
2022-12-15T10:55:38.121Z,97368.47
2022-12-15T10:58:20.794Z,97374.06
2022-12-15T11:01:07.043Z,97371.97
2022-12-15T11:03:39.158Z,97374.72
2022-12-15T11:06:26.457Z,97382.25
2022-12-15T11:08:57.707Z,97384.84
2022-12-15T11:11:47.146Z,97392.81
2022-12-15T11:14:19.848Z,97397.47
2022-12-15T11:16:59.312Z,97394.81
2022-12-15T11:19:47.495Z,97396.41
2022-12-15T11:22:38.751Z,97397.75
2022-12-15T11:25:25.136Z,97409.19
2022-12-15T11:27:59.312Z,97410.56
2022-12-15T11:30:45.381Z,97411.41
2022-12-15T11:33:13.296Z,97406.56
2022-12-15T11:35:46.652Z,97413.22
2022-12-15T11:38:40.193Z,97411.63
2022-12-15T11:41:43.552Z,97413.16
2022-12-15T11:44:16.467Z,97416.09
2022-12-15T11:46:54.601Z,97409.53
2022-12-15T11:50:01.894Z,97414.59
2022-12-15T11:53:06.834Z,97429.88
2022-12-15T11:55:49.799Z,97427.91
2022-12-15T11:58:41.095Z,97435.31
2022-12-15T12:01:36.768Z,97430.56
2022-12-15T12:04:35.839Z,97433.72
2022-12-15T12:07:20.791Z,97435.97
2022-12-15T12:10:15.655Z,97445.31
2022-12-15T12:13:00.510Z,97442.31
2022-12-15T12:16:01.902Z,97443.75
2022-12-15T12:18:50.613Z,97423.78
2022-12-15T12:21:35.088Z,97428.56
2022-12-15T12:24:16.403Z,97428.13
2022-12-15T12:26:59.520Z,97417.06
2022-12-15T12:29:45.408Z,97423.66
2022-12-15T12:33:05.444Z,97415.22
2022-12-15T12:35:48.937Z,97423.44
2022-12-15T12:38:25.157Z,97424.69
2022-12-15T12:41:31.928Z,97420.94
2022-12-15T12:44:31.043Z,97439.31
2022-12-15T12:47:11.949Z,97439.78
2022-12-15T12:50:02.194Z,97443.59
2022-12-15T12:52:38.216Z,97448.94
2022-12-15T12:55:17.254Z,97446.72
2022-12-15T12:57:46.330Z,97440.34
2022-12-15T13:00:18.061Z,97439.53
2022-12-15T13:03:16.572Z,97436.94
2022-12-15T13:05:48.867Z,97431.44
2022-12-15T13:08:50.816Z,97426.19
2022-12-15T13:11:51.693Z,97429.09
2022-12-15T13:14:39.394Z,97417.94
2022-12-15T13:17:27.962Z,97408.25
2022-12-15T13:20:01.603Z,97420.56
2022-12-15T13:22:36.922Z,97423.16
2022-12-15T13:25:53.643Z,97421.94
2022-12-15T13:28:40.812Z,97425.13
2022-12-15T13:31:21.055Z,97416.88
2022-12-15T13:33:52.396Z,97416.88
2022-12-15T13:36:41.121Z,97429.97
2022-12-15T13:39:17.463Z,97435.41
2022-12-15T13:45:05.102Z,97446.25
2022-12-15T13:47:33.970Z,97457.66
2022-12-15T13:50:09.317Z,97458.31
2022-12-15T13:55:51.037Z,97461.06
2022-12-15T13:58:21.705Z,97473.88
2022-12-15T14:00:55.578Z,97486.00
2022-12-15T14:03:24.672Z,97485.16
2022-12-15T14:05:59.738Z,97485.94
2022-12-15T14:08:30.983Z,97488.44
2022-12-15T14:16:37.766Z,97500.16
2022-12-15T14:19:17.999Z,97511.25
2022-12-15T14:21:59.549Z,97519.75
2022-12-15T14:24:46.370Z,97526.41
2022-12-15T14:27:29.185Z,97528.66
2022-12-15T14:30:32.990Z,97534.66
2022-12-15T14:33:16.341Z,97536.97
2022-12-15T14:35:51.150Z,97531.66
2022-12-15T14:38:33.132Z,97537.78
2022-12-15T14:41:04.220Z,97535.97
2022-12-15T14:43:40.189Z,97532.63
2022-12-15T14:46:24.731Z,97533.13
2022-12-15T14:49:06.108Z,97536.47
2022-12-15T14:51:47.060Z,97532.88
2022-12-15T14:54:32.608Z,97534.41
2022-12-15T14:57:16.195Z,97537.50
2022-12-15T14:59:48.724Z,97540.66
2022-12-15T15:02:26.880Z,97525.13
2022-12-15T15:03:05.770Z,97496.16
2022-12-15T15:03:11.749Z,97495.41
2022-12-15T15:05:03.519Z,97537.69
2022-12-15T15:07:38.075Z,97539.19
2022-12-15T15:10:29.338Z,97539.19
2022-12-15T15:12:56.945Z,97536.50
2022-12-15T15:15:26.948Z,97532.13
2022-12-15T15:17:59.511Z,97534.78
2022-12-15T15:20:37.895Z,97541.78
2022-12-15T15:23:08.388Z,97542.56
2022-12-15T15:25:49.475Z,97546.66
2022-12-15T15:28:20.503Z,97538.59
2022-12-15T15:30:50.780Z,97538.34
2022-12-15T15:33:19.934Z,97542.38
2022-12-15T15:36:06.534Z,97556.03
2022-12-15T15:38:39.853Z,97556.91
2022-12-15T15:41:33.308Z,97555.13
2022-12-15T15:44:02.592Z,97544.59
2022-12-15T15:46:36.022Z,97536.03
2022-12-15T15:49:13.231Z,97532.97
2022-12-15T15:51:41.192Z,97542.66
2022-12-15T15:54:16.687Z,97539.28
2022-12-15T15:56:44.083Z,97541.00
2022-12-15T15:59:15.316Z,97546.34
2022-12-15T16:01:45.159Z,97536.38
2022-12-15T16:04:12.986Z,97524.63
2022-12-15T16:06:46.789Z,97521.31
2022-12-15T16:09:16.920Z,97509.44
2022-12-15T16:11:46.605Z,97491.56
2022-12-15T16:14:17.364Z,97498.25
2022-12-15T16:16:45.891Z,97498.25
2022-12-15T16:19:13.559Z,97507.06
2022-12-15T16:21:43.063Z,97504.22
2022-12-15T16:24:17.795Z,97511.03
2022-12-15T16:26:50.640Z,97508.63
2022-12-15T16:29:21.747Z,97511.97
2022-12-15T16:31:49.587Z,97517.38
2022-12-15T16:34:17.619Z,97524.00
2022-12-15T16:36:45.379Z,97529.94
2022-12-15T16:39:34.810Z,97531.22
2022-12-15T16:42:02.933Z,97528.50
2022-12-15T16:44:31.106Z,97525.22
2022-12-15T16:46:59.550Z,97518.47
2022-12-15T16:49:33.840Z,97519.63
2022-12-15T16:52:05.612Z,97522.31
2022-12-15T16:54:33.273Z,97522.41
2022-12-15T16:57:00.567Z,97525.66
2022-12-15T16:59:36.272Z,97518.91
2022-12-15T17:02:17.303Z,97525.97
2022-12-15T17:04:44.985Z,97542.00
2022-12-15T17:07:20.091Z,97538.84
2022-12-15T17:09:50.504Z,97535.88
2022-12-15T17:12:18.382Z,97539.66
2022-12-15T17:14:46.336Z,97546.69
2022-12-15T17:17:19.509Z,97536.47
2022-12-15T17:20:19.652Z,97553.69
2022-12-15T17:22:36.415Z,97547.19
2022-12-15T17:25:04.348Z,97539.41
2022-12-15T17:27:32.012Z,97535.16
2022-12-15T17:30:01.453Z,97528.91
2022-12-15T17:32:28.761Z,97519.44
2022-12-15T17:34:56.750Z,97525.69
2022-12-15T17:37:26.186Z,97517.25
2022-12-15T17:39:56.893Z,97519.75
2022-12-15T17:42:24.159Z,97511.75
2022-12-15T17:44:51.971Z,97508.19
2022-12-15T17:47:19.580Z,97504.22
2022-12-15T17:49:47.531Z,97516.28
2022-12-15T17:52:28.463Z,97512.25
2022-12-15T17:54:57.357Z,97512.03
2022-12-15T17:57:25.666Z,97522.16
2022-12-15T17:59:53.839Z,97519.34
2022-12-15T18:02:21.206Z,97528.53
2022-12-15T18:04:48.802Z,97519.81
2022-12-15T18:07:22.992Z,97525.56
2022-12-15T18:09:52.501Z,97533.41
2022-12-15T18:12:26.495Z,97534.25
2022-12-15T18:14:56.060Z,97534.72
2022-12-15T18:17:24.227Z,97533.13
2022-12-15T18:19:51.781Z,97531.94
2022-12-15T18:22:25.326Z,97537.06
2022-12-15T18:24:54.460Z,97537.91
2022-12-15T18:27:28.198Z,97541.28
2022-12-15T18:29:57.193Z,97537.22
2022-12-15T18:32:27.452Z,97550.97
2022-12-15T18:34:55.764Z,97553.69
2022-12-15T18:37:28.273Z,97561.13
2022-12-15T18:39:59.516Z,97564.53
2022-12-15T18:42:31.318Z,97560.22
2022-12-15T18:45:00.523Z,97562.56
2022-12-15T18:47:27.984Z,97552.22
2022-12-15T18:49:55.630Z,97539.34
2022-12-15T18:52:27.525Z,97540.13
2022-12-15T18:54:57.742Z,97534.41
2022-12-15T18:57:42.915Z,97546.72
2022-12-15T19:00:13.105Z,97545.94
2022-12-15T19:02:41.902Z,97532.56
2022-12-15T19:05:27.492Z,97533.50
2022-12-15T19:08:10.212Z,97524.44
2022-12-15T19:10:49.707Z,97519.06
2022-12-15T19:13:22.351Z,97529.47
2022-12-15T19:15:50.565Z,97521.69
2022-12-15T19:18:40.626Z,97513.31
2022-12-15T19:21:32.528Z,97508.72
2022-12-15T19:24:00.724Z,97511.09
2022-12-15T19:26:28.346Z,97501.19
2022-12-15T19:28:55.827Z,97502.78
2022-12-15T19:31:23.719Z,97508.19
2022-12-15T19:33:51.181Z,97509.91
2022-12-15T19:36:26.147Z,97512.97
2022-12-15T19:38:55.805Z,97501.38
2022-12-15T19:41:23.682Z,97515.63
2022-12-15T19:43:51.039Z,97513.31
2022-12-15T19:46:21.530Z,97512.66
2022-12-15T19:48:49.061Z,97507.09
2022-12-15T19:51:23.257Z,97497.41
2022-12-15T19:53:50.700Z,97492.16
2022-12-15T19:56:22.008Z,97494.56
2022-12-15T19:58:49.641Z,97504.41
2022-12-15T20:01:21.268Z,97504.53
2022-12-15T20:03:52.583Z,97503.34
2022-12-15T20:06:27.109Z,97510.00
2022-12-15T20:08:56.983Z,97510.72
2022-12-15T20:11:32.434Z,97503.22
2022-12-15T20:14:01.733Z,97512.88
2022-12-15T20:16:29.431Z,97511.03
2022-12-15T20:18:56.742Z,97504.25
2022-12-15T20:21:33.413Z,97508.63
2022-12-15T20:24:18.939Z,97503.56
2022-12-15T20:26:47.165Z,97495.28
2022-12-15T20:29:28.567Z,97498.06
2022-12-15T20:31:58.842Z,97494.47
2022-12-15T20:34:26.561Z,97492.72
2022-12-15T20:36:54.208Z,97490.38
2022-12-15T20:39:29.541Z,97479.72
2022-12-15T20:41:57.915Z,97478.09
2022-12-15T20:44:25.468Z,97483.22
2022-12-15T20:46:54.785Z,97475.19
2022-12-15T20:49:24.196Z,97464.97
2022-12-15T20:51:51.954Z,97454.88
2022-12-15T20:54:22.031Z,97469.94
2022-12-15T20:56:50.679Z,97466.03
2022-12-15T20:59:18.485Z,97460.44
2022-12-15T21:01:47.051Z,97455.31
2022-12-15T21:04:28.967Z,97465.75
2022-12-15T21:06:57.058Z,97463.09
2022-12-15T21:09:25.128Z,97462.56
2022-12-15T21:11:55.127Z,97453.94
2022-12-15T21:14:24.115Z,97453.66
2022-12-15T21:16:52.416Z,97453.16
2022-12-15T21:19:21.616Z,97438.28
2022-12-15T21:21:55.079Z,97448.03
2022-12-15T21:24:28.747Z,97436.38
2022-12-15T21:26:56.596Z,97431.31
2022-12-15T21:29:28.286Z,97445.47
2022-12-15T21:31:55.893Z,97436.72
2022-12-15T21:34:23.171Z,97439.72
2022-12-15T21:36:54.948Z,97444.22
2022-12-15T21:39:35.580Z,97431.38
2022-12-15T21:42:21.839Z,97428.00
2022-12-15T21:44:49.098Z,97408.31
2022-12-15T21:47:48.929Z,97410.94
2022-12-15T21:50:18.812Z,97418.69
2022-12-15T21:52:47.755Z,97413.97
2022-12-15T21:55:26.281Z,97408.44
2022-12-15T21:57:55.296Z,97407.59
2022-12-15T22:00:24.330Z,97418.53
2022-12-15T22:02:54.031Z,97409.50
2022-12-15T22:05:21.945Z,97412.03
2022-12-15T22:07:50.841Z,97414.69
2022-12-15T22:10:19.298Z,97418.59
2022-12-15T22:12:58.994Z,97415.00
2022-12-15T22:15:28.974Z,97409.19
2022-12-15T22:17:56.568Z,97399.53
2022-12-15T22:20:25.450Z,97406.72
2022-12-15T22:22:52.958Z,97411.47
2022-12-15T22:25:24.711Z,97399.72
2022-12-15T22:27:52.899Z,97406.16
2022-12-15T22:30:26.963Z,97398.19
2022-12-15T22:32:54.721Z,97401.44
2022-12-15T22:35:27.312Z,97399.38
2022-12-15T22:37:56.115Z,97391.69
2022-12-15T22:40:24.613Z,97384.47
2022-12-15T22:42:57.876Z,97375.81
2022-12-15T22:45:25.289Z,97359.28
2022-12-15T22:47:55.181Z,97359.56
2022-12-15T22:50:26.958Z,97359.28
2022-12-15T22:52:54.991Z,97365.16
2022-12-15T22:55:24.696Z,97366.88
2022-12-15T22:58:07.135Z,97360.56
2022-12-15T23:00:34.618Z,97363.63
2022-12-15T23:03:02.637Z,97365.31
2022-12-15T23:05:29.957Z,97371.03
2022-12-15T23:07:59.138Z,97367.75
2022-12-15T23:10:45.366Z,97351.09
2022-12-15T23:13:12.865Z,97350.13
2022-12-15T23:15:58.676Z,97342.34
2022-12-15T23:18:26.189Z,97331.94
2022-12-15T23:20:54.024Z,97325.88
2022-12-15T23:23:22.181Z,97315.38
2022-12-15T23:25:49.369Z,97313.34
2022-12-15T23:28:16.889Z,97313.88
2022-12-15T23:30:50.302Z,97311.78
2022-12-15T23:33:19.002Z,97314.09
2022-12-15T23:35:46.606Z,97305.56
2022-12-15T23:38:14.268Z,97309.91
2022-12-15T23:40:52.776Z,97300.34
2022-12-15T23:43:22.109Z,97302.78
2022-12-15T23:46:03.202Z,97310.38
2022-12-15T23:48:34.707Z,97303.09
2022-12-15T23:51:15.563Z,97316.06
2022-12-15T23:53:45.518Z,97311.09
2022-12-15T23:56:15.120Z,97303.53
2022-12-15T23:58:45.072Z,97302.09
